Beardstown, Illinois
Current Conditions -  °F | °C
As of 4:55 PM on Thursday 27 Nov 2014 (Local Time) from KIJX Reporting Station
Clear Clear  
Wind Chill: 12°   Ceiling: Unl
Heat Index: 21°   Visibility: 10mi
Dew Point: 13°   Wind: 8mph
Humidity: 72%   Direction: 350°N
Pressure: 30.47"   Gusts: NA
Location:  40.02°N, 90.43°W
Report Text: KIJX 272255Z AUTO 35007KT 10SM CLR M06/M10 A3047 RMK AO2 T10601103
Loading
Personal Weather Stations






























Interactive Weather Map New forecast layout! Learn more

10-Day Weather Forecast

Advertisements
Track Severe Weather on mobile